Current Weather

Aswan Intl

Aswan Intl, Egypt (HESN)

Report from: Monday, May 23, 2022 10:00 AM EET
Current time: Monday, May 23, 2022 10:54 AM EET

Nearby weather
Weather history
Weather forecast

Temperature29.0°C (84.2°F)
Heat index27.5°C (81.6°F)
Dew point3.0°C (37.4°F)
Winds 13 kts (6.7 m/s, 15 mph) North (360°)
Clouds Sky clear
Altimeter29.88 in.Hg (1012 mB)
Relative humidity19 %
Density altitude1,766 ft. (538 m)
Remarks Ceiling and visibility OK
No significant changes expected in the next two hours
Flight conditions Visual Meteorological Conditions
Raw dataHESN 230800Z 36013KT CAVOK 29/03 Q1012 NOSIG
An error has occurred. This application may no longer respond until reloaded. Reload 🗙